createdAt,value
2024-05-09T00:02:03.546Z,11.60
2024-05-09T00:04:49.028Z,11.90
2024-05-09T00:07:35.668Z,11.10
2024-05-09T00:10:28.846Z,12.15
2024-05-09T00:13:20.255Z,11.80
2024-05-09T00:16:07.366Z,11.88
2024-05-09T00:18:54.338Z,11.75
2024-05-09T00:21:43.191Z,12.47
2024-05-09T00:24:28.561Z,12.50
2024-05-09T00:27:14.026Z,12.18
2024-05-09T00:29:59.261Z,12.40
2024-05-09T00:32:44.477Z,11.80
2024-05-09T00:35:29.973Z,13.00
2024-05-09T00:38:15.334Z,12.02
2024-05-09T00:41:01.278Z,12.45
2024-05-09T00:43:46.730Z,12.15
2024-05-09T00:46:32.487Z,12.68
2024-05-09T00:49:17.898Z,12.67
2024-05-09T00:52:03.581Z,12.35
2024-05-09T00:54:48.826Z,14.23
2024-05-09T00:57:34.094Z,13.05
2024-05-09T01:00:27.184Z,11.88
2024-05-09T01:04:15.825Z,12.03
2024-05-09T01:07:01.230Z,12.68
2024-05-09T01:09:46.770Z,13.48
2024-05-09T01:12:32.211Z,13.18
2024-05-09T01:15:17.673Z,13.20
2024-05-09T01:18:10.540Z,11.90
2024-05-09T01:20:59.146Z,12.38
2024-05-09T01:23:44.577Z,13.45
2024-05-09T01:26:29.918Z,12.80
2024-05-09T01:29:15.235Z,12.65
2024-05-09T01:32:00.962Z,13.23
2024-05-09T01:34:46.377Z,12.43
2024-05-09T01:37:31.843Z,13.15
2024-05-09T01:40:22.110Z,12.88
2024-05-09T01:43:13.063Z,12.57
2024-05-09T01:45:58.273Z,12.07
2024-05-09T01:48:43.617Z,13.07
2024-05-09T01:51:29.267Z,13.52
2024-05-09T01:54:16.157Z,13.35
2024-05-09T01:57:01.773Z,13.27
2024-05-09T01:59:46.820Z,14.07
2024-05-09T02:02:32.318Z,12.88
2024-05-09T02:05:18.011Z,14.07
2024-05-09T02:08:04.087Z,13.27
2024-05-09T02:10:50.611Z,13.35
2024-05-09T02:13:36.583Z,13.40
2024-05-09T02:16:21.935Z,13.68
2024-05-09T02:19:07.306Z,14.63
2024-05-09T02:21:52.586Z,13.57
2024-05-09T02:24:37.894Z,13.45
2024-05-09T02:27:23.052Z,14.47
2024-05-09T02:30:18.843Z,14.05
2024-05-09T02:33:14.547Z,14.30
2024-05-09T02:36:00.138Z,13.30
2024-05-09T02:38:45.260Z,13.95
2024-05-09T02:41:30.811Z,13.97
2024-05-09T02:44:15.985Z,13.23
2024-05-09T02:47:01.769Z,13.55
2024-05-09T02:49:47.044Z,13.00
2024-05-09T02:52:32.496Z,13.90
2024-05-09T02:55:18.162Z,13.83
2024-05-09T02:58:03.634Z,14.60
2024-05-09T03:00:48.945Z,14.23
2024-05-09T03:03:34.482Z,14.30
2024-05-09T03:06:20.207Z,14.68
2024-05-09T03:09:07.302Z,13.43
2024-05-09T03:11:52.749Z,13.63
2024-05-09T03:14:38.473Z,14.00
2024-05-09T03:17:24.044Z,14.35
2024-05-09T03:20:17.404Z,14.38
2024-05-09T03:23:10.386Z,14.10
2024-05-09T03:25:55.729Z,13.82
2024-05-09T03:28:44.548Z,14.57
2024-05-09T03:31:30.279Z,15.15
2024-05-09T03:34:18.992Z,13.43
2024-05-09T03:37:04.347Z,13.87
2024-05-09T03:39:49.822Z,14.50
2024-05-09T03:42:40.804Z,14.25
2024-05-09T03:45:26.079Z,15.10
2024-05-09T03:48:17.588Z,14.73
2024-05-09T03:51:03.850Z,15.03
2024-05-09T03:53:48.962Z,13.98
2024-05-09T03:56:34.770Z,14.90
2024-05-09T03:59:20.498Z,15.20
2024-05-09T04:02:06.525Z,15.15
2024-05-09T04:04:51.938Z,14.10
2024-05-09T04:07:37.680Z,14.55
2024-05-09T04:10:30.495Z,13.55
2024-05-09T04:13:18.406Z,14.43
2024-05-09T04:16:03.784Z,14.95
2024-05-09T04:18:49.402Z,14.10
2024-05-09T04:21:34.628Z,14.18
2024-05-09T04:24:20.053Z,14.35
2024-05-09T04:27:05.538Z,15.18
2024-05-09T04:29:50.885Z,13.93
2024-05-09T04:32:36.154Z,14.17
2024-05-09T04:35:22.463Z,13.93
2024-05-09T04:38:09.372Z,13.98
2024-05-09T04:40:55.059Z,14.65
2024-05-09T04:43:41.098Z,14.82
2024-05-09T04:46:26.561Z,14.23
2024-05-09T04:49:16.445Z,13.93
2024-05-09T04:52:01.628Z,14.38
2024-05-09T04:54:46.627Z,13.63
2024-05-09T04:57:31.925Z,15.18
2024-05-09T05:00:25.737Z,13.47
2024-05-09T05:03:19.079Z,14.02
2024-05-09T05:06:04.996Z,14.75
2024-05-09T05:08:50.391Z,14.48
2024-05-09T05:11:35.920Z,15.15
2024-05-09T05:14:21.087Z,14.37
2024-05-09T05:17:06.352Z,14.45
2024-05-09T05:19:51.930Z,15.32
2024-05-09T05:22:37.349Z,14.25
2024-05-09T05:25:22.929Z,14.40
2024-05-09T05:28:08.668Z,14.63
2024-05-09T05:30:54.001Z,14.55
2024-05-09T05:33:40.256Z,14.85
2024-05-09T05:36:25.472Z,14.95
2024-05-09T05:39:13.675Z,15.63
2024-05-09T05:41:59.034Z,14.63
2024-05-09T05:44:44.173Z,14.75
2024-05-09T05:47:29.781Z,14.75
2024-05-09T05:50:24.603Z,14.50
2024-05-09T05:53:19.165Z,14.77
2024-05-09T05:56:05.197Z,14.03
2024-05-09T05:58:51.403Z,14.15
2024-05-09T06:01:36.649Z,15.98
2024-05-09T06:04:22.100Z,15.32
2024-05-09T06:07:07.432Z,15.63
2024-05-09T06:09:52.883Z,15.03
2024-05-09T06:12:39.664Z,15.57
2024-05-09T06:15:24.963Z,16.20
2024-05-09T06:18:11.829Z,16.35
2024-05-09T06:20:57.723Z,15.18
2024-05-09T06:23:49.982Z,14.93
2024-05-09T06:26:35.575Z,15.55
2024-05-09T06:29:21.178Z,15.07
2024-05-09T06:32:06.938Z,15.45
2024-05-09T06:34:52.220Z,16.75
2024-05-09T06:37:37.338Z,16.40
2024-05-09T06:40:25.936Z,17.90
2024-05-09T06:43:20.125Z,17.48
2024-05-09T06:46:05.829Z,16.70
2024-05-09T06:48:51.353Z,18.75
2024-05-09T06:51:42.629Z,18.87
2024-05-09T06:54:27.748Z,18.98
2024-05-09T06:57:13.997Z,19.10
2024-05-09T07:00:01.005Z,19.05
2024-05-09T07:02:46.908Z,20.27
2024-05-09T07:05:33.187Z,18.60
2024-05-09T07:08:19.503Z,18.63
2024-05-09T07:11:05.178Z,19.65
2024-05-09T07:13:50.817Z,18.77
2024-05-09T07:16:36.476Z,17.67
2024-05-09T07:19:22.070Z,18.90
2024-05-09T07:22:07.594Z,18.58
2024-05-09T07:24:53.691Z,18.98
2024-05-09T07:27:39.140Z,18.13
2024-05-09T07:30:32.616Z,19.15
2024-05-09T07:33:22.866Z,18.47
2024-05-09T07:36:09.115Z,19.80
2024-05-09T07:38:54.960Z,18.67
2024-05-09T07:41:40.285Z,18.48
2024-05-09T07:44:26.017Z,20.45
2024-05-09T07:48:27.551Z,19.80
2024-05-09T07:53:36.644Z,20.02
2024-05-09T07:56:12.747Z,19.63
2024-05-09T07:58:58.465Z,19.90
2024-05-09T08:01:43.742Z,18.93
2024-05-09T08:04:29.478Z,19.13
2024-05-09T08:07:17.131Z,19.75
2024-05-09T08:10:02.784Z,20.83
2024-05-09T08:12:48.742Z,20.73
2024-05-09T08:15:33.993Z,20.93
2024-05-09T08:18:23.325Z,20.45
2024-05-09T08:21:09.084Z,20.67
2024-05-09T08:23:54.443Z,20.92
2024-05-09T08:26:39.930Z,21.65
2024-05-09T08:29:25.307Z,20.00
2024-05-09T08:32:13.732Z,20.10
2024-05-09T08:34:59.196Z,20.38
2024-05-09T08:37:44.907Z,19.20
2024-05-09T08:40:35.566Z,21.58
2024-05-09T08:43:24.775Z,19.73
2024-05-09T08:46:12.942Z,19.65
2024-05-09T08:48:59.998Z,18.60
2024-05-09T08:51:48.768Z,18.70
2024-05-09T08:54:34.168Z,19.73
2024-05-09T08:57:22.963Z,18.60
2024-05-09T09:00:12.814Z,16.73
2024-05-09T09:03:01.580Z,19.00
2024-05-09T09:06:01.621Z,18.55
2024-05-09T09:08:47.586Z,17.45
2024-05-09T09:11:32.846Z,15.83
2024-05-09T09:14:19.512Z,15.52
2024-05-09T09:17:17.595Z,16.00
2024-05-09T09:20:02.992Z,15.27
2024-05-09T09:22:48.915Z,14.63
2024-05-09T09:25:35.090Z,14.83
2024-05-09T09:28:23.882Z,13.63
2024-05-09T09:31:09.119Z,12.50
2024-05-09T09:33:54.795Z,14.68
2024-05-09T09:36:40.982Z,13.75
2024-05-09T09:39:28.396Z,13.00
2024-05-09T09:42:16.685Z,11.60
2024-05-09T09:45:05.378Z,10.40
2024-05-09T09:47:55.848Z,11.40
2024-05-09T09:50:41.972Z,6.28
2024-05-09T09:53:28.541Z,6.90
2024-05-09T09:56:17.475Z,8.35
2024-05-09T09:59:04.313Z,7.60
2024-05-09T10:01:49.784Z,6.85
2024-05-09T10:04:36.767Z,5.40
2024-05-09T10:07:24.495Z,5.40
2024-05-09T10:10:13.996Z,6.75
2024-05-09T10:13:08.804Z,6.53
2024-05-09T10:15:54.834Z,6.13
2024-05-09T10:18:41.685Z,4.88
2024-05-09T10:21:27.938Z,5.43
2024-05-09T10:24:23.489Z,6.03
2024-05-09T10:27:08.647Z,4.47
2024-05-09T10:29:58.083Z,4.72
2024-05-09T10:32:44.809Z,4.15
2024-05-09T10:35:31.427Z,2.80
2024-05-09T10:38:17.609Z,3.00
2024-05-09T10:41:03.621Z,5.07
2024-05-09T10:43:49.690Z,6.40
2024-05-09T10:46:34.632Z,6.70
2024-05-09T10:49:19.962Z,7.33
2024-05-09T10:52:05.604Z,7.82
2024-05-09T10:54:52.068Z,8.73
2024-05-09T10:57:41.042Z,7.88
2024-05-09T11:00:36.045Z,8.70
2024-05-09T11:03:25.323Z,8.10
2024-05-09T11:06:11.258Z,8.60
2024-05-09T11:08:57.092Z,8.20
2024-05-09T11:11:42.702Z,8.63
2024-05-09T11:14:27.909Z,8.23
2024-05-09T11:17:13.125Z,7.20
2024-05-09T11:19:58.594Z,7.28
2024-05-09T11:22:43.690Z,5.97
2024-05-09T11:25:30.415Z,6.63
2024-05-09T11:28:15.737Z,5.05
2024-05-09T11:31:06.876Z,4.60
2024-05-09T11:33:54.366Z,3.85
2024-05-09T11:36:39.684Z,3.80
2024-05-09T11:39:25.266Z,3.88
2024-05-09T11:42:10.797Z,3.75
2024-05-09T11:44:55.788Z,3.10
2024-05-09T11:47:41.080Z,3.75
2024-05-09T11:50:32.728Z,4.93
2024-05-09T11:53:20.598Z,2.92
2024-05-09T11:56:05.950Z,3.50
2024-05-09T11:58:51.350Z,3.10
2024-05-09T12:01:36.978Z,2.80
2024-05-09T12:04:22.435Z,3.40
2024-05-09T12:07:09.753Z,3.33
2024-05-09T12:09:56.555Z,3.00
2024-05-09T12:12:41.722Z,3.10
2024-05-09T12:15:27.002Z,2.90
2024-05-09T12:18:12.252Z,2.60
2024-05-09T12:20:57.695Z,2.50
2024-05-09T12:23:42.560Z,2.63
2024-05-09T12:26:28.399Z,3.27
2024-05-09T12:29:13.398Z,3.15
2024-05-09T12:31:58.586Z,3.10
2024-05-09T12:34:44.287Z,2.78
2024-05-09T12:37:29.376Z,2.88
2024-05-09T12:40:22.926Z,3.00
2024-05-09T12:43:16.086Z,3.28
2024-05-09T12:46:01.308Z,2.90
2024-05-09T12:48:47.065Z,2.90
2024-05-09T12:51:32.638Z,2.95
2024-05-09T12:54:17.890Z,2.70
2024-05-09T12:57:03.073Z,2.38
2024-05-09T12:59:48.197Z,3.08
2024-05-09T13:02:33.360Z,2.88
2024-05-09T13:05:18.729Z,3.55
2024-05-09T13:08:04.247Z,3.00
2024-05-09T13:10:50.324Z,2.95
2024-05-09T13:13:35.609Z,2.80
2024-05-09T13:16:20.750Z,2.72
2024-05-09T13:19:06.075Z,3.60
2024-05-09T13:21:51.415Z,2.40
2024-05-09T13:24:36.714Z,2.50
2024-05-09T13:27:22.163Z,3.30
2024-05-09T13:30:14.552Z,3.45
2024-05-09T13:33:02.999Z,3.30
2024-05-09T13:35:50.571Z,3.50
2024-05-09T13:38:36.387Z,3.03
2024-05-09T13:41:21.882Z,3.83
2024-05-09T13:44:07.173Z,3.30
2024-05-09T13:46:52.298Z,3.80
2024-05-09T13:49:37.418Z,3.30
2024-05-09T13:52:22.670Z,4.03
2024-05-09T13:55:08.066Z,4.10
2024-05-09T13:57:53.315Z,4.50
2024-05-09T14:00:46.165Z,4.47
2024-05-09T14:03:34.282Z,4.57
2024-05-09T14:06:20.118Z,3.63
2024-05-09T14:09:05.426Z,4.00
2024-05-09T14:11:50.562Z,4.10
2024-05-09T14:14:35.543Z,4.40
2024-05-09T14:17:21.126Z,4.10
2024-05-09T14:20:09.446Z,3.70
2024-05-09T14:22:57.080Z,3.80
2024-05-09T14:25:43.893Z,4.28
2024-05-09T14:28:30.517Z,5.10
2024-05-09T14:31:15.734Z,3.83
2024-05-09T14:34:01.601Z,3.58
2024-05-09T14:36:47.045Z,3.65
2024-05-09T14:39:32.166Z,4.72
2024-05-09T14:42:17.427Z,4.25
2024-05-09T14:45:02.772Z,5.67
2024-05-09T14:47:48.140Z,5.28
2024-05-09T14:50:37.377Z,5.38
2024-05-09T14:53:26.436Z,4.93
2024-05-09T14:56:11.376Z,6.00
2024-05-09T14:58:57.188Z,5.70
2024-05-09T15:01:42.157Z,5.72
2024-05-09T15:04:28.624Z,5.28
2024-05-09T15:07:13.932Z,6.03
2024-05-09T15:09:59.309Z,6.05
2024-05-09T15:12:44.578Z,5.67
2024-05-09T15:15:29.926Z,5.75
2024-05-09T15:18:15.730Z,5.55
2024-05-09T15:21:01.054Z,6.22
2024-05-09T15:23:46.255Z,7.22
2024-05-09T15:26:31.480Z,5.87
2024-05-09T15:29:16.817Z,7.07
2024-05-09T15:32:02.095Z,5.80
2024-05-09T15:34:47.118Z,5.18
2024-05-09T15:37:32.569Z,6.47
2024-05-09T15:40:26.344Z,5.93
2024-05-09T15:43:20.508Z,5.70
2024-05-09T15:46:06.552Z,6.82
2024-05-09T15:48:51.946Z,7.43
2024-05-09T15:51:37.213Z,6.78
2024-05-09T15:54:23.693Z,6.37
2024-05-09T15:57:10.378Z,6.20
2024-05-09T15:59:55.691Z,7.03
2024-05-09T16:02:40.813Z,6.57
2024-05-09T16:05:26.626Z,7.30
2024-05-09T16:08:13.049Z,6.32
2024-05-09T16:10:58.289Z,6.30
2024-05-09T16:13:43.867Z,6.90
2024-05-09T16:16:29.154Z,6.82
2024-05-09T16:19:14.936Z,7.05
2024-05-09T16:22:02.357Z,6.90
2024-05-09T16:24:48.194Z,6.83
2024-05-09T16:27:33.385Z,7.10
2024-05-09T16:30:27.739Z,6.80
2024-05-09T16:33:23.447Z,6.88
2024-05-09T16:36:09.040Z,6.25
2024-05-09T16:38:54.091Z,6.97
2024-05-09T16:41:39.378Z,7.10
2024-05-09T16:44:24.638Z,7.55
2024-05-09T16:47:09.967Z,7.18
2024-05-09T16:49:55.636Z,6.82
2024-05-09T16:52:40.699Z,6.73
2024-05-09T16:55:26.090Z,7.00
2024-05-09T16:58:12.363Z,8.32
2024-05-09T17:00:57.963Z,7.47
2024-05-09T17:03:44.135Z,7.95
2024-05-09T17:06:29.426Z,8.10
2024-05-09T17:09:18.026Z,8.25
2024-05-09T17:12:05.049Z,8.40
2024-05-09T17:14:50.001Z,9.02
2024-05-09T17:17:35.136Z,9.05
2024-05-09T17:20:29.386Z,8.93
2024-05-09T17:23:19.447Z,8.95
2024-05-09T17:26:05.504Z,9.73
2024-05-09T17:28:50.649Z,11.57
2024-05-09T17:31:35.875Z,10.82
2024-05-09T17:34:21.476Z,12.23
2024-05-09T17:37:06.581Z,12.98
2024-05-09T17:39:51.832Z,14.10
2024-05-09T17:42:36.996Z,13.45
2024-05-09T17:45:22.891Z,13.18
2024-05-09T17:48:09.675Z,11.83
2024-05-09T17:50:55.099Z,13.13
2024-05-09T17:53:40.331Z,13.50
2024-05-09T17:56:25.925Z,13.30
2024-05-09T17:59:11.669Z,12.75
2024-05-09T18:01:57.028Z,13.37
2024-05-09T18:04:42.590Z,14.35
2024-05-09T18:07:27.756Z,13.90
2024-05-09T18:10:19.520Z,13.43
2024-05-09T18:13:12.217Z,13.13
2024-05-09T18:15:57.705Z,13.67
2024-05-09T18:18:43.848Z,12.82
2024-05-09T18:21:29.397Z,12.52
2024-05-09T18:24:14.806Z,13.15
2024-05-09T18:27:00.076Z,13.35
2024-05-09T18:29:45.034Z,11.70
2024-05-09T18:32:30.357Z,11.55
2024-05-09T18:35:15.836Z,12.25
2024-05-09T18:38:00.965Z,11.95
2024-05-09T18:40:48.871Z,11.18
2024-05-09T18:43:38.559Z,11.73
2024-05-09T18:46:30.470Z,11.98
2024-05-09T18:49:15.898Z,10.63
2024-05-09T18:52:01.408Z,11.25
2024-05-09T18:54:46.598Z,11.18
2024-05-09T18:57:32.341Z,11.60
2024-05-09T19:00:30.881Z,10.25
2024-05-09T19:03:20.809Z,10.77
2024-05-09T19:06:06.222Z,10.45
2024-05-09T19:08:51.452Z,10.50
2024-05-09T19:11:39.782Z,10.23
2024-05-09T19:14:25.256Z,10.85
2024-05-09T19:17:10.677Z,11.07
2024-05-09T19:19:56.572Z,10.25
2024-05-09T19:22:42.067Z,10.60
2024-05-09T19:25:27.248Z,10.43
2024-05-09T19:28:12.560Z,10.23
2024-05-09T19:30:57.610Z,10.23
2024-05-09T19:33:43.549Z,9.70
2024-05-09T19:36:29.064Z,9.70
2024-05-09T19:39:14.335Z,10.23
2024-05-09T19:41:59.732Z,10.52
2024-05-09T19:44:45.098Z,10.00
2024-05-09T19:47:30.476Z,9.48
2024-05-09T19:50:22.480Z,10.05
2024-05-09T19:53:13.263Z,9.73
2024-05-09T19:55:58.870Z,9.82
2024-05-09T19:58:43.956Z,10.40
2024-05-09T20:01:29.280Z,10.68
2024-05-09T20:04:14.994Z,10.50
2024-05-09T20:07:00.388Z,10.53
2024-05-09T20:09:45.556Z,10.25
2024-05-09T20:12:30.858Z,9.63
2024-05-09T20:15:16.008Z,9.75
2024-05-09T20:18:01.379Z,10.07
2024-05-09T20:20:48.236Z,9.43
2024-05-09T20:23:34.849Z,10.40
2024-05-09T20:26:20.214Z,10.23
2024-05-09T20:29:05.269Z,10.60
2024-05-09T20:31:50.507Z,10.00
2024-05-09T20:34:36.221Z,9.97
2024-05-09T20:37:21.811Z,10.10
2024-05-09T20:40:12.038Z,9.95
2024-05-09T20:43:00.882Z,10.13
2024-05-09T20:45:46.102Z,10.80
2024-05-09T20:48:31.478Z,10.47
2024-05-09T20:51:16.667Z,10.50
2024-05-09T20:54:01.943Z,10.23
2024-05-09T20:56:47.169Z,11.05
2024-05-09T20:59:32.270Z,11.15
2024-05-09T21:02:17.745Z,10.10
2024-05-09T21:05:03.764Z,10.50
2024-05-09T21:07:48.904Z,10.90
2024-05-09T21:10:35.544Z,10.10
2024-05-09T21:13:20.998Z,9.98
2024-05-09T21:16:06.783Z,10.07
2024-05-09T21:18:51.869Z,9.63
2024-05-09T21:21:40.872Z,9.48
2024-05-09T21:24:26.356Z,9.15
2024-05-09T21:27:12.740Z,9.35
2024-05-09T21:29:57.700Z,9.27
2024-05-09T21:32:42.974Z,9.50
2024-05-09T21:35:28.301Z,8.75
2024-05-09T21:38:14.589Z,9.07
2024-05-09T21:40:59.994Z,9.32
2024-05-09T21:43:45.520Z,9.23
2024-05-09T21:46:30.925Z,9.05
2024-05-09T21:49:17.865Z,9.57
2024-05-09T21:52:03.605Z,9.40
2024-05-09T21:54:48.623Z,9.32
2024-05-09T21:57:33.792Z,9.00
2024-05-09T22:00:28.689Z,9.50
2024-05-09T22:03:20.705Z,9.20
2024-05-09T22:06:05.901Z,8.75
2024-05-09T22:08:50.805Z,9.75
2024-05-09T22:11:36.571Z,9.03
2024-05-09T22:14:21.829Z,8.85
2024-05-09T22:17:07.149Z,9.15
2024-05-09T22:19:52.772Z,8.60
2024-05-09T22:22:37.634Z,8.98
2024-05-09T22:25:22.916Z,8.63
2024-05-09T22:28:08.279Z,8.65
2024-05-09T22:30:55.451Z,8.75
2024-05-09T22:33:41.936Z,8.95
2024-05-09T22:36:28.831Z,9.32
2024-05-09T22:39:14.026Z,8.67
2024-05-09T22:41:59.436Z,9.10
2024-05-09T22:44:44.374Z,8.63
2024-05-09T22:47:29.533Z,8.70
2024-05-09T22:50:18.666Z,9.55
2024-05-09T22:53:11.270Z,8.37
2024-05-09T22:55:56.427Z,8.63
2024-05-09T22:58:41.758Z,9.15
2024-05-09T23:01:27.785Z,9.20
2024-05-09T23:04:13.162Z,8.90
2024-05-09T23:06:58.554Z,8.67
2024-05-09T23:09:46.770Z,9.15
2024-05-09T23:12:32.194Z,9.57
2024-05-09T23:15:17.457Z,9.23
2024-05-09T23:18:02.727Z,8.43
2024-05-09T23:20:48.184Z,9.20
2024-05-09T23:23:33.456Z,9.45
2024-05-09T23:26:18.805Z,9.10
2024-05-09T23:29:03.787Z,9.32
2024-05-09T23:31:49.051Z,10.13
2024-05-09T23:34:34.254Z,9.73
2024-05-09T23:37:19.588Z,9.35
2024-05-09T23:40:07.250Z,9.65
2024-05-09T23:42:54.783Z,9.80
2024-05-09T23:45:40.330Z,9.20
2024-05-09T23:48:25.812Z,9.77
2024-05-09T23:51:11.464Z,9.05
2024-05-09T23:53:56.441Z,9.85
2024-05-09T23:56:41.765Z,9.75
2024-05-09T23:59:27.174Z,10.30
